Aérodrome :
LOGIN :

S'inscrire | Disclaimer

   EN    FR    IT 

 










Légende :    VFR   VFR Marginal   IFR   IFR Intensif   IFR Très Intensif
Visi : 
Plafond : 
>= 8 km
>= 3000ft
5 à 8 km
1000 à 3000 ft
1500m à 5 km
500 à 1000 ft
800 à 1500m
200 à 500 ft
< 800m
< 200 ft
Symboles :   Orages  Brouillard  Fortes neiges  Fortes précipitations  Vent > 20 kt
SIGMETs :   Divers  Orages  Givrage  Turbulence  Onde Orograph.  Cendres Volcan.






- Altitude de l'aérodrome : 20 ft


EBFN - Koksijde

DERNIER METAR :
  • 191246Z AUTO 17003KT 9999 BKN032/// BKN059/// 13/11 Q1003 BLU

METARs EXPIRÉS :
  • 191225Z AUTO 19003KT 9999 SCT020/// BKN050/// 12/11 Q1003 WHT
  • 191213Z AUTO 23005KT 9999 OVC020/// 11/10 Q1003 WHT
  • 191151Z AUTO 23006KT 3600 -RA OVC025/// 11/10 Q1003 YLO
  • 191125Z AUTO 23012KT 4800 RA FEW023/// OVC043/// 11/09 Q1003 GRN
  • 191119Z AUTO 23010KT 4700 DZ OVC039/// 11/09 Q1003 GRN
  • 191109Z AUTO 23010KT 7000 OVC039/// 11/09 Q1003 WHT
  • 191055Z AUTO 22012KT 9999 -RA OVC039/// 11/09 Q1003 BLU
  • 191048Z AUTO 21011KT 7000 DZ OVC051/// 12/09 Q1003 WHT
  • 191025Z AUTO 20011KT 9999 -RA OVC056/// 12/10 Q1003 BLU
  • 190955Z AUTO 22012KT 9999 DZ OVC041/// 12/10 Q1003 BLU

TAF TAF EBFN
Valide du 19 à 13h jusqu'au 19 à 22h UTC


191141Z 1913/1922 23012KT 9999 SCT030 BKN040
TEMPO 1910/1919 5000 -SHRA BKN022TCU
PROB30
TEMPO 1910/1919 3500 SHRA BKN015TCU



MET'MAP, la Météo Aéronautique d'un coup d'oeil ! - Copyright ORBIFLY Décembre 2007 - Disclaimer

ORBIFLY MET'MAP TEAM :

Programmation & Développement : Alexandra Zaïnal
Conception & Développement : Baudouin d'Aumeries
Co-Programmation & Développement : Marc-Olivier Méhu
Soutien technique & logistique : Manuel Goepfert

Contact : metmap@orbifly.com




SOURCES & CREDITS :

   NOAA